KMEM

Memphis International Airport

Memphis, Tennessee, USA
METAR KMEM 221354Z 16003KT 10SM FEW150 SCT220 BKN250 09/04 A3027 RMK AO2 SLP251 T00940039
Observed Flight Rules
Oct-22 @ 13:54 UTC (27 minutes ago) Visual Flight Rules
Wind Visibility Clouds
160° at 3 knots 10 miles
  • Few at 15,000' AGL
  • Scattered at 22,000' AGL
  • Broken at 25,000' AGL
Temperatures Readings
Current 9°C / 48°F
Dewpoint 4°C / 39°F
Humidity 71%
Altimeter 30.27" Hg
Pressure 1025.1 hPa
Elevation 86
METAR KMEM 221354Z 16003KT 10SM FEW150 SCT220 BKN250 09/04 A3027 RMK AO2 SLP251 T00940039
Observed Flight Rules
Oct-22 @ 13:54 UTC
(27 minutes ago)
VFR
Wind Visibility
160° at 3 knots 10 miles
Clouds
  • Few at 15,000' AGL
  • Scattered at 22,000' AGL
  • Broken at 25,000' AGL
Temperature Dewpoint
9°C / 48°F 4°C / 39°F
Humidity Altimeter Pressure
71% 30.27" Hg 1025.1 hPa